sensor_id;sensor_type;location;lat;lon;timestamp;P1;durP1;ratioP1;P2;durP2;ratioP2
22713;SDS011;11524;50.846;4.326;2022-08-25T00:01:31;5.38;;;4.13;;
22713;SDS011;11524;50.846;4.326;2022-08-25T00:03:59;4.75;;;4.22;;
22713;SDS011;11524;50.846;4.326;2022-08-25T00:06:26;5.82;;;4.38;;
22713;SDS011;11524;50.846;4.326;2022-08-25T00:08:51;6.38;;;4.43;;
22713;SDS011;11524;50.846;4.326;2022-08-25T00:11:19;6.10;;;3.78;;
22713;SDS011;11524;50.846;4.326;2022-08-25T00:13:49;5.28;;;4.18;;
22713;SDS011;11524;50.846;4.326;2022-08-25T00:16:17;6.65;;;4.53;;
22713;SDS011;11524;50.846;4.326;2022-08-25T00:18:45;5.95;;;4.13;;
22713;SDS011;11524;50.846;4.326;2022-08-25T00:21:13;6.88;;;4.45;;
22713;SDS011;11524;50.846;4.326;2022-08-25T00:23:40;5.90;;;4.88;;
22713;SDS011;11524;50.846;4.326;2022-08-25T00:26:06;4.95;;;4.10;;
22713;SDS011;11524;50.846;4.326;2022-08-25T00:28:33;7.63;;;4.25;;
22713;SDS011;11524;50.846;4.326;2022-08-25T00:30:59;4.68;;;4.00;;
22713;SDS011;11524;50.846;4.326;2022-08-25T00:33:25;5.75;;;4.65;;
22713;SDS011;11524;50.846;4.326;2022-08-25T00:35:51;5.25;;;4.50;;
22713;SDS011;11524;50.846;4.326;2022-08-25T00:38:18;5.45;;;4.13;;
22713;SDS011;11524;50.846;4.326;2022-08-25T00:40:44;8.65;;;4.40;;
22713;SDS011;11524;50.846;4.326;2022-08-25T00:43:10;5.43;;;3.95;;
22713;SDS011;11524;50.846;4.326;2022-08-25T00:45:36;4.22;;;3.83;;
22713;SDS011;11524;50.846;4.326;2022-08-25T00:48:02;4.40;;;3.97;;
22713;SDS011;11524;50.846;4.326;2022-08-25T00:50:28;6.68;;;4.20;;
22713;SDS011;11524;50.846;4.326;2022-08-25T00:52:59;4.95;;;4.45;;
22713;SDS011;11524;50.846;4.326;2022-08-25T00:55:35;5.70;;;4.43;;
22713;SDS011;11524;50.846;4.326;2022-08-25T01:00:39;6.15;;;4.38;;
22713;SDS011;11524;50.846;4.326;2022-08-25T01:03:07;4.88;;;3.60;;
22713;SDS011;11524;50.846;4.326;2022-08-25T01:05:33;5.20;;;4.28;;
22713;SDS011;11524;50.846;4.326;2022-08-25T01:07:59;5.45;;;4.05;;
22713;SDS011;11524;50.846;4.326;2022-08-25T01:10:27;4.80;;;4.07;;
22713;SDS011;11524;50.846;4.326;2022-08-25T01:12:57;5.32;;;4.20;;
22713;SDS011;11524;50.846;4.326;2022-08-25T01:15:26;5.05;;;3.95;;
22713;SDS011;11524;50.846;4.326;2022-08-25T01:17:53;5.70;;;4.00;;
22713;SDS011;11524;50.846;4.326;2022-08-25T01:20:22;6.25;;;3.90;;
22713;SDS011;11524;50.846;4.326;2022-08-25T01:22:51;4.45;;;4.05;;
22713;SDS011;11524;50.846;4.326;2022-08-25T01:28:12;5.30;;;4.10;;
22713;SDS011;11524;50.846;4.326;2022-08-25T01:30:39;6.10;;;3.90;;
22713;SDS011;11524;50.846;4.326;2022-08-25T01:33:05;5.68;;;4.10;;
22713;SDS011;11524;50.846;4.326;2022-08-25T01:35:32;4.07;;;3.58;;
22713;SDS011;11524;50.846;4.326;2022-08-25T01:38:00;4.97;;;3.85;;
22713;SDS011;11524;50.846;4.326;2022-08-25T01:40:27;5.43;;;3.60;;
22713;SDS011;11524;50.846;4.326;2022-08-25T01:45:42;6.22;;;3.75;;
22713;SDS011;11524;50.846;4.326;2022-08-25T01:48:11;7.47;;;4.03;;
22713;SDS011;11524;50.846;4.326;2022-08-25T01:50:37;4.82;;;3.60;;
22713;SDS011;11524;50.846;4.326;2022-08-25T01:53:12;5.65;;;4.13;;
22713;SDS011;11524;50.846;4.326;2022-08-25T01:55:43;4.28;;;3.65;;
22713;SDS011;11524;50.846;4.326;2022-08-25T01:58:30;5.15;;;3.70;;
22713;SDS011;11524;50.846;4.326;2022-08-25T02:00:58;5.10;;;3.90;;
22713;SDS011;11524;50.846;4.326;2022-08-25T02:03:26;5.13;;;3.55;;
22713;SDS011;11524;50.846;4.326;2022-08-25T02:05:52;6.22;;;3.67;;
22713;SDS011;11524;50.846;4.326;2022-08-25T02:08:19;4.15;;;3.75;;
22713;SDS011;11524;50.846;4.326;2022-08-25T02:10:47;5.28;;;4.13;;
22713;SDS011;11524;50.846;4.326;2022-08-25T02:16:27;4.70;;;3.83;;
22713;SDS011;11524;50.846;4.326;2022-08-25T02:18:55;4.50;;;3.47;;
22713;SDS011;11524;50.846;4.326;2022-08-25T02:21:21;4.57;;;3.75;;
22713;SDS011;11524;50.846;4.326;2022-08-25T02:23:47;6.20;;;3.60;;
22713;SDS011;11524;50.846;4.326;2022-08-25T02:29:15;5.18;;;3.95;;
22713;SDS011;11524;50.846;4.326;2022-08-25T02:31:41;4.20;;;3.80;;
22713;SDS011;11524;50.846;4.326;2022-08-25T02:34:08;4.15;;;3.75;;
22713;SDS011;11524;50.846;4.326;2022-08-25T02:36:35;5.38;;;4.03;;
22713;SDS011;11524;50.846;4.326;2022-08-25T02:39:03;7.43;;;4.45;;
22713;SDS011;11524;50.846;4.326;2022-08-25T02:41:29;4.55;;;4.03;;
22713;SDS011;11524;50.846;4.326;2022-08-25T02:43:55;5.28;;;3.85;;
22713;SDS011;11524;50.846;4.326;2022-08-25T02:46:21;4.68;;;4.00;;
22713;SDS011;11524;50.846;4.326;2022-08-25T02:48:49;6.60;;;3.95;;
22713;SDS011;11524;50.846;4.326;2022-08-25T02:51:17;5.55;;;4.55;;
22713;SDS011;11524;50.846;4.326;2022-08-25T02:53:44;5.50;;;4.13;;
22713;SDS011;11524;50.846;4.326;2022-08-25T02:56:11;6.25;;;4.18;;
22713;SDS011;11524;50.846;4.326;2022-08-25T02:58:38;7.88;;;4.40;;
22713;SDS011;11524;50.846;4.326;2022-08-25T03:01:06;6.40;;;4.60;;
22713;SDS011;11524;50.846;4.326;2022-08-25T03:03:33;6.45;;;4.68;;
22713;SDS011;11524;50.846;4.326;2022-08-25T03:05:59;5.43;;;4.53;;
22713;SDS011;11524;50.846;4.326;2022-08-25T03:08:27;6.47;;;4.13;;
22713;SDS011;11524;50.846;4.326;2022-08-25T03:10:54;6.10;;;4.25;;
22713;SDS011;11524;50.846;4.326;2022-08-25T03:13:20;6.70;;;4.50;;
22713;SDS011;11524;50.846;4.326;2022-08-25T03:15:45;6.95;;;4.78;;
22713;SDS011;11524;50.846;4.326;2022-08-25T03:18:11;7.10;;;4.68;;
22713;SDS011;11524;50.846;4.326;2022-08-25T03:20:37;6.43;;;4.68;;
22713;SDS011;11524;50.846;4.326;2022-08-25T03:23:04;6.15;;;4.88;;
22713;SDS011;11524;50.846;4.326;2022-08-25T03:25:30;6.50;;;5.07;;
22713;SDS011;11524;50.846;4.326;2022-08-25T03:28:15;6.57;;;4.80;;
22713;SDS011;11524;50.846;4.326;2022-08-25T05:08:55;8.07;;;3.95;;
22713;SDS011;11524;50.846;4.326;2022-08-25T05:11:21;6.25;;;3.97;;
22713;SDS011;11524;50.846;4.326;2022-08-25T05:13:49;6.25;;;4.13;;
22713;SDS011;11524;50.846;4.326;2022-08-25T05:16:16;9.05;;;4.00;;
22713;SDS011;11524;50.846;4.326;2022-08-25T05:18:42;7.65;;;4.50;;
22713;SDS011;11524;50.846;4.326;2022-08-25T05:21:10;8.65;;;4.15;;
22713;SDS011;11524;50.846;4.326;2022-08-25T05:23:39;9.63;;;4.22;;
22713;SDS011;11524;50.846;4.326;2022-08-25T05:26:06;14.75;;;4.90;;
22713;SDS011;11524;50.846;4.326;2022-08-25T05:28:43;10.55;;;5.45;;
22713;SDS011;11524;50.846;4.326;2022-08-25T05:31:09;9.48;;;4.88;;
22713;SDS011;11524;50.846;4.326;2022-08-25T05:36:22;11.02;;;5.07;;
22713;SDS011;11524;50.846;4.326;2022-08-25T05:38:50;9.02;;;4.70;;
22713;SDS011;11524;50.846;4.326;2022-08-25T05:41:18;8.40;;;4.68;;
22713;SDS011;11524;50.846;4.326;2022-08-25T05:43:47;12.18;;;4.38;;
22713;SDS011;11524;50.846;4.326;2022-08-25T05:46:13;10.10;;;4.43;;
22713;SDS011;11524;50.846;4.326;2022-08-25T05:48:40;16.98;;;4.75;;
22713;SDS011;11524;50.846;4.326;2022-08-25T05:51:07;10.18;;;5.00;;
22713;SDS011;11524;50.846;4.326;2022-08-25T05:53:34;8.95;;;4.15;;
22713;SDS011;11524;50.846;4.326;2022-08-25T05:56:01;11.77;;;4.75;;
22713;SDS011;11524;50.846;4.326;2022-08-25T05:58:27;14.85;;;4.38;;
22713;SDS011;11524;50.846;4.326;2022-08-25T06:00:54;10.10;;;3.97;;
22713;SDS011;11524;50.846;4.326;2022-08-25T06:03:21;8.25;;;4.55;;
22713;SDS011;11524;50.846;4.326;2022-08-25T06:05:47;9.32;;;4.22;;
22713;SDS011;11524;50.846;4.326;2022-08-25T06:08:13;12.77;;;4.47;;
22713;SDS011;11524;50.846;4.326;2022-08-25T06:10:40;8.60;;;4.10;;
22713;SDS011;11524;50.846;4.326;2022-08-25T06:13:06;9.98;;;3.90;;
22713;SDS011;11524;50.846;4.326;2022-08-25T06:15:31;8.55;;;4.10;;
22713;SDS011;11524;50.846;4.326;2022-08-25T06:17:57;9.13;;;4.32;;
22713;SDS011;11524;50.846;4.326;2022-08-25T06:20:26;10.02;;;4.22;;
22713;SDS011;11524;50.846;4.326;2022-08-25T06:22:53;9.63;;;3.92;;
22713;SDS011;11524;50.846;4.326;2022-08-25T06:25:20;7.65;;;3.63;;
22713;SDS011;11524;50.846;4.326;2022-08-25T06:27:47;10.02;;;3.80;;
22713;SDS011;11524;50.846;4.326;2022-08-25T06:30:14;9.50;;;4.25;;
22713;SDS011;11524;50.846;4.326;2022-08-25T06:32:44;7.15;;;3.72;;
22713;SDS011;11524;50.846;4.326;2022-08-25T06:35:12;8.65;;;3.97;;
22713;SDS011;11524;50.846;4.326;2022-08-25T06:37:40;8.13;;;4.38;;
22713;SDS011;11524;50.846;4.326;2022-08-25T06:40:07;7.20;;;4.20;;
22713;SDS011;11524;50.846;4.326;2022-08-25T06:42:34;9.57;;;4.45;;
22713;SDS011;11524;50.846;4.326;2022-08-25T06:45:01;9.70;;;4.47;;
22713;SDS011;11524;50.846;4.326;2022-08-25T06:47:27;7.15;;;3.75;;
22713;SDS011;11524;50.846;4.326;2022-08-25T06:49:53;10.45;;;3.80;;
22713;SDS011;11524;50.846;4.326;2022-08-25T06:52:21;8.73;;;4.00;;
22713;SDS011;11524;50.846;4.326;2022-08-25T06:55:37;10.07;;;4.32;;
22713;SDS011;11524;50.846;4.326;2022-08-25T06:58:03;9.43;;;4.43;;
22713;SDS011;11524;50.846;4.326;2022-08-25T07:03:21;22.23;;;4.20;;
22713;SDS011;11524;50.846;4.326;2022-08-25T07:05:50;14.30;;;3.88;;
22713;SDS011;11524;50.846;4.326;2022-08-25T07:08:17;14.27;;;3.78;;
22713;SDS011;11524;50.846;4.326;2022-08-25T07:10:49;12.77;;;4.18;;
22713;SDS011;11524;50.846;4.326;2022-08-25T07:13:15;15.57;;;4.13;;
22713;SDS011;11524;50.846;4.326;2022-08-25T07:15:41;11.00;;;4.10;;
22713;SDS011;11524;50.846;4.326;2022-08-25T07:18:08;9.27;;;3.95;;
22713;SDS011;11524;50.846;4.326;2022-08-25T07:20:35;11.88;;;4.00;;
22713;SDS011;11524;50.846;4.326;2022-08-25T07:26:09;7.90;;;4.10;;
22713;SDS011;11524;50.846;4.326;2022-08-25T07:28:36;16.60;;;4.20;;
22713;SDS011;11524;50.846;4.326;2022-08-25T07:31:02;12.02;;;4.03;;
22713;SDS011;11524;50.846;4.326;2022-08-25T07:33:29;9.05;;;4.15;;
22713;SDS011;11524;50.846;4.326;2022-08-25T07:35:54;8.45;;;3.97;;
22713;SDS011;11524;50.846;4.326;2022-08-25T07:38:21;10.98;;;3.75;;
22713;SDS011;11524;50.846;4.326;2022-08-25T07:41:00;8.40;;;3.75;;
22713;SDS011;11524;50.846;4.326;2022-08-25T07:43:44;9.73;;;4.05;;
22713;SDS011;11524;50.846;4.326;2022-08-25T07:46:11;8.05;;;3.50;;
22713;SDS011;11524;50.846;4.326;2022-08-25T07:48:37;5.75;;;3.90;;
22713;SDS011;11524;50.846;4.326;2022-08-25T07:51:07;7.25;;;3.67;;
22713;SDS011;11524;50.846;4.326;2022-08-25T07:53:35;6.28;;;3.63;;
22713;SDS011;11524;50.846;4.326;2022-08-25T07:56:14;9.63;;;3.67;;
22713;SDS011;11524;50.846;4.326;2022-08-25T08:01:47;10.18;;;3.88;;
22713;SDS011;11524;50.846;4.326;2022-08-25T08:04:12;7.32;;;3.88;;
22713;SDS011;11524;50.846;4.326;2022-08-25T08:09:40;9.82;;;3.80;;
22713;SDS011;11524;50.846;4.326;2022-08-25T08:12:05;7.95;;;3.78;;
22713;SDS011;11524;50.846;4.326;2022-08-25T08:14:32;9.55;;;3.90;;
22713;SDS011;11524;50.846;4.326;2022-08-25T08:16:58;8.18;;;3.80;;
22713;SDS011;11524;50.846;4.326;2022-08-25T08:19:24;10.73;;;3.75;;
22713;SDS011;11524;50.846;4.326;2022-08-25T08:21:51;8.77;;;3.70;;
22713;SDS011;11524;50.846;4.326;2022-08-25T08:24:20;10.43;;;3.60;;
22713;SDS011;11524;50.846;4.326;2022-08-25T08:26:46;7.13;;;3.75;;
22713;SDS011;11524;50.846;4.326;2022-08-25T08:29:15;8.40;;;3.70;;
22713;SDS011;11524;50.846;4.326;2022-08-25T08:31:44;7.35;;;3.65;;
22713;SDS011;11524;50.846;4.326;2022-08-25T08:34:09;6.30;;;3.72;;
22713;SDS011;11524;50.846;4.326;2022-08-25T08:36:37;5.75;;;3.60;;
22713;SDS011;11524;50.846;4.326;2022-08-25T08:55:29;7.07;;;3.75;;
22713;SDS011;11524;50.846;4.326;2022-08-25T08:57:57;12.50;;;3.40;;
22713;SDS011;11524;50.846;4.326;2022-08-25T09:00:44;10.10;;;3.60;;
22713;SDS011;11524;50.846;4.326;2022-08-25T09:09:25;21.42;;;4.40;;
22713;SDS011;11524;50.846;4.326;2022-08-25T09:18:08;12.90;;;4.22;;
22713;SDS011;11524;50.846;4.326;2022-08-25T09:31:30;14.13;;;3.83;;
22713;SDS011;11524;50.846;4.326;2022-08-25T09:34:00;12.05;;;3.42;;
22713;SDS011;11524;50.846;4.326;2022-08-25T09:36:28;8.40;;;3.47;;
22713;SDS011;11524;50.846;4.326;2022-08-25T09:38:54;9.15;;;3.65;;
22713;SDS011;11524;50.846;4.326;2022-08-25T09:41:45;9.55;;;3.22;;
22713;SDS011;11524;50.846;4.326;2022-08-25T09:49:45;5.70;;;3.20;;
22713;SDS011;11524;50.846;4.326;2022-08-25T09:52:28;9.07;;;3.03;;
22713;SDS011;11524;50.846;4.326;2022-08-25T09:57:31;6.32;;;2.97;;
22713;SDS011;11524;50.846;4.326;2022-08-25T10:06:12;7.13;;;2.65;;
22713;SDS011;11524;50.846;4.326;2022-08-25T10:08:50;6.10;;;2.80;;
22713;SDS011;11524;50.846;4.326;2022-08-25T10:11:38;4.78;;;2.70;;
22713;SDS011;11524;50.846;4.326;2022-08-25T10:14:17;3.63;;;2.45;;
22713;SDS011;11524;50.846;4.326;2022-08-25T10:17:13;4.75;;;2.85;;
22713;SDS011;11524;50.846;4.326;2022-08-25T10:19:39;4.22;;;2.60;;
22713;SDS011;11524;50.846;4.326;2022-08-25T10:24:36;4.40;;;2.42;;
22713;SDS011;11524;50.846;4.326;2022-08-25T10:35:10;3.78;;;2.65;;
22713;SDS011;11524;50.846;4.326;2022-08-25T10:37:45;3.47;;;2.50;;
22713;SDS011;11524;50.846;4.326;2022-08-25T10:40:42;8.18;;;2.83;;
22713;SDS011;11524;50.846;4.326;2022-08-25T10:43:29;4.63;;;2.40;;
22713;SDS011;11524;50.846;4.326;2022-08-25T10:46:25;2.95;;;2.30;;
22713;SDS011;11524;50.846;4.326;2022-08-25T10:49:09;5.43;;;2.88;;
22713;SDS011;11524;50.846;4.326;2022-08-25T10:52:04;4.30;;;2.50;;
22713;SDS011;11524;50.846;4.326;2022-08-25T11:00:17;6.38;;;3.15;;
22713;SDS011;11524;50.846;4.326;2022-08-25T11:06:11;6.00;;;2.47;;
22713;SDS011;11524;50.846;4.326;2022-08-25T11:08:55;5.03;;;2.50;;
22713;SDS011;11524;50.846;4.326;2022-08-25T11:11:30;5.60;;;2.72;;
22713;SDS011;11524;50.846;4.326;2022-08-25T11:14:02;6.13;;;2.50;;
22713;SDS011;11524;50.846;4.326;2022-08-25T11:19:10;12.70;;;2.97;;
22713;SDS011;11524;50.846;4.326;2022-08-25T11:21:46;7.35;;;2.80;;
22713;SDS011;11524;50.846;4.326;2022-08-25T11:24:28;7.40;;;2.75;;
22713;SDS011;11524;50.846;4.326;2022-08-25T11:27:22;6.85;;;2.90;;
22713;SDS011;11524;50.846;4.326;2022-08-25T11:30:02;8.57;;;2.80;;
22713;SDS011;11524;50.846;4.326;2022-08-25T11:32:32;6.40;;;2.72;;
22713;SDS011;11524;50.846;4.326;2022-08-25T11:35:01;8.00;;;2.65;;
22713;SDS011;11524;50.846;4.326;2022-08-25T11:37:33;4.18;;;2.70;;
22713;SDS011;11524;50.846;4.326;2022-08-25T11:40:34;4.18;;;2.88;;
22713;SDS011;11524;50.846;4.326;2022-08-25T11:43:30;5.50;;;2.55;;
22713;SDS011;11524;50.846;4.326;2022-08-25T11:51:46;5.78;;;2.53;;
22713;SDS011;11524;50.846;4.326;2022-08-25T11:54:19;8.60;;;2.90;;
22713;SDS011;11524;50.846;4.326;2022-08-25T11:56:56;5.75;;;2.50;;
22713;SDS011;11524;50.846;4.326;2022-08-25T12:05:00;5.45;;;2.30;;
22713;SDS011;11524;50.846;4.326;2022-08-25T12:16:06;25.60;;;18.73;;
22713;SDS011;11524;50.846;4.326;2022-08-25T12:18:52;28.85;;;22.25;;
22713;SDS011;11524;50.846;4.326;2022-08-25T12:21:29;38.00;;;26.92;;
22713;SDS011;11524;50.846;4.326;2022-08-25T12:24:05;32.78;;;25.65;;
22713;SDS011;11524;50.846;4.326;2022-08-25T12:26:52;37.50;;;28.40;;
22713;SDS011;11524;50.846;4.326;2022-08-25T12:29:41;42.95;;;30.35;;
22713;SDS011;11524;50.846;4.326;2022-08-25T12:32:16;55.47;;;38.75;;
22713;SDS011;11524;50.846;4.326;2022-08-25T12:38:14;47.65;;;37.47;;
22713;SDS011;11524;50.846;4.326;2022-08-25T12:45:41;44.13;;;34.22;;
22713;SDS011;11524;50.846;4.326;2022-08-25T12:51:00;47.58;;;38.22;;
22713;SDS011;11524;50.846;4.326;2022-08-25T12:56:15;52.63;;;37.05;;
22713;SDS011;11524;50.846;4.326;2022-08-25T12:58:49;50.45;;;38.70;;
22713;SDS011;11524;50.846;4.326;2022-08-25T13:10:19;47.58;;;37.17;;
22713;SDS011;11524;50.846;4.326;2022-08-25T13:16:02;44.80;;;34.35;;
22713;SDS011;11524;50.846;4.326;2022-08-25T13:18:35;43.60;;;35.72;;
22713;SDS011;11524;50.846;4.326;2022-08-25T13:21:08;42.63;;;33.25;;
22713;SDS011;11524;50.846;4.326;2022-08-25T13:23:44;45.50;;;35.28;;
22713;SDS011;11524;50.846;4.326;2022-08-25T13:26:13;41.03;;;32.50;;
22713;SDS011;11524;50.846;4.326;2022-08-25T13:28:41;44.63;;;34.53;;
22713;SDS011;11524;50.846;4.326;2022-08-25T13:31:16;38.05;;;30.90;;
22713;SDS011;11524;50.846;4.326;2022-08-25T13:34:05;42.42;;;33.22;;
22713;SDS011;11524;50.846;4.326;2022-08-25T13:36:42;43.42;;;32.70;;
22713;SDS011;11524;50.846;4.326;2022-08-25T13:39:29;38.03;;;30.20;;
22713;SDS011;11524;50.846;4.326;2022-08-25T13:41:57;38.10;;;30.25;;
22713;SDS011;11524;50.846;4.326;2022-08-25T13:44:25;41.38;;;29.63;;
22713;SDS011;11524;50.846;4.326;2022-08-25T13:49:32;37.13;;;30.55;;
22713;SDS011;11524;50.846;4.326;2022-08-25T13:51:58;36.33;;;29.17;;
22713;SDS011;11524;50.846;4.326;2022-08-25T13:54:26;36.47;;;29.25;;
22713;SDS011;11524;50.846;4.326;2022-08-25T13:57:02;33.00;;;26.08;;
22713;SDS011;11524;50.846;4.326;2022-08-25T13:59:36;32.20;;;26.35;;
22713;SDS011;11524;50.846;4.326;2022-08-25T14:02:05;35.53;;;25.38;;
22713;SDS011;11524;50.846;4.326;2022-08-25T14:07:07;30.85;;;24.30;;
22713;SDS011;11524;50.846;4.326;2022-08-25T14:09:49;31.90;;;24.23;;
22713;SDS011;11524;50.846;4.326;2022-08-25T14:17:35;26.13;;;21.30;;
22713;SDS011;11524;50.846;4.326;2022-08-25T14:20:14;27.55;;;22.10;;
22713;SDS011;11524;50.846;4.326;2022-08-25T14:22:45;30.23;;;20.80;;
22713;SDS011;11524;50.846;4.326;2022-08-25T14:25:13;26.20;;;20.15;;
22713;SDS011;11524;50.846;4.326;2022-08-25T14:27:40;25.90;;;20.20;;
22713;SDS011;11524;50.846;4.326;2022-08-25T14:30:07;25.58;;;20.90;;
22713;SDS011;11524;50.846;4.326;2022-08-25T14:32:33;25.30;;;20.20;;
22713;SDS011;11524;50.846;4.326;2022-08-25T14:34:59;24.58;;;19.77;;
22713;SDS011;11524;50.846;4.326;2022-08-25T14:37:26;24.17;;;19.75;;
22713;SDS011;11524;50.846;4.326;2022-08-25T14:39:51;24.77;;;19.05;;
22713;SDS011;11524;50.846;4.326;2022-08-25T14:42:18;22.60;;;18.70;;
22713;SDS011;11524;50.846;4.326;2022-08-25T14:44:44;25.95;;;20.00;;
22713;SDS011;11524;50.846;4.326;2022-08-25T14:47:10;22.40;;;18.67;;
22713;SDS011;11524;50.846;4.326;2022-08-25T14:49:37;21.40;;;17.80;;
22713;SDS011;11524;50.846;4.326;2022-08-25T14:52:20;24.13;;;18.85;;
22713;SDS011;11524;50.846;4.326;2022-08-25T14:54:50;22.33;;;17.98;;
22713;SDS011;11524;50.846;4.326;2022-08-25T14:57:16;23.05;;;17.38;;
22713;SDS011;11524;50.846;4.326;2022-08-25T14:59:43;21.63;;;17.52;;
22713;SDS011;11524;50.846;4.326;2022-08-25T15:02:08;22.98;;;17.33;;
22713;SDS011;11524;50.846;4.326;2022-08-25T15:04:38;25.35;;;16.85;;
22713;SDS011;11524;50.846;4.326;2022-08-25T15:07:03;19.73;;;15.60;;
22713;SDS011;11524;50.846;4.326;2022-08-25T15:09:49;23.13;;;16.50;;
22713;SDS011;11524;50.846;4.326;2022-08-25T15:12:15;22.10;;;16.45;;
22713;SDS011;11524;50.846;4.326;2022-08-25T15:14:43;21.13;;;15.93;;
22713;SDS011;11524;50.846;4.326;2022-08-25T15:17:09;18.42;;;15.50;;
22713;SDS011;11524;50.846;4.326;2022-08-25T15:19:36;19.48;;;14.93;;
22713;SDS011;11524;50.846;4.326;2022-08-25T15:22:04;18.08;;;15.07;;
22713;SDS011;11524;50.846;4.326;2022-08-25T15:24:30;21.85;;;15.98;;
22713;SDS011;11524;50.846;4.326;2022-08-25T15:26:56;19.50;;;15.18;;
22713;SDS011;11524;50.846;4.326;2022-08-25T15:29:26;18.88;;;15.38;;
22713;SDS011;11524;50.846;4.326;2022-08-25T15:31:54;20.45;;;14.70;;
22713;SDS011;11524;50.846;4.326;2022-08-25T15:34:20;19.70;;;13.63;;
22713;SDS011;11524;50.846;4.326;2022-08-25T15:36:46;17.38;;;13.05;;
22713;SDS011;11524;50.846;4.326;2022-08-25T15:39:12;16.17;;;13.38;;
22713;SDS011;11524;50.846;4.326;2022-08-25T15:41:38;18.88;;;13.43;;
22713;SDS011;11524;50.846;4.326;2022-08-25T15:44:05;16.40;;;12.32;;
22713;SDS011;11524;50.846;4.326;2022-08-25T15:46:32;18.60;;;12.35;;
22713;SDS011;11524;50.846;4.326;2022-08-25T15:48:59;16.17;;;11.50;;
22713;SDS011;11524;50.846;4.326;2022-08-25T15:51:26;14.75;;;11.35;;
22713;SDS011;11524;50.846;4.326;2022-08-25T15:53:52;15.43;;;11.50;;
22713;SDS011;11524;50.846;4.326;2022-08-25T15:56:18;14.32;;;10.88;;
22713;SDS011;11524;50.846;4.326;2022-08-25T15:58:45;15.48;;;10.60;;
22713;SDS011;11524;50.846;4.326;2022-08-25T16:01:16;14.38;;;11.35;;
22713;SDS011;11524;50.846;4.326;2022-08-25T16:03:44;14.03;;;10.37;;
22713;SDS011;11524;50.846;4.326;2022-08-25T16:06:09;12.50;;;10.40;;
22713;SDS011;11524;50.846;4.326;2022-08-25T16:08:36;16.20;;;10.50;;
22713;SDS011;11524;50.846;4.326;2022-08-25T16:11:03;14.07;;;10.50;;
22713;SDS011;11524;50.846;4.326;2022-08-25T16:13:30;14.60;;;9.68;;
22713;SDS011;11524;50.846;4.326;2022-08-25T16:15:56;16.15;;;10.63;;
22713;SDS011;11524;50.846;4.326;2022-08-25T16:18:23;12.15;;;10.18;;
22713;SDS011;11524;50.846;4.326;2022-08-25T16:20:52;13.43;;;9.27;;
22713;SDS011;11524;50.846;4.326;2022-08-25T16:23:20;12.20;;;10.60;;
22713;SDS011;11524;50.846;4.326;2022-08-25T16:26:11;12.35;;;9.40;;
22713;SDS011;11524;50.846;4.326;2022-08-25T16:28:41;13.07;;;9.27;;
22713;SDS011;11524;50.846;4.326;2022-08-25T16:31:07;11.52;;;10.32;;
22713;SDS011;11524;50.846;4.326;2022-08-25T16:33:34;11.57;;;9.73;;
22713;SDS011;11524;50.846;4.326;2022-08-25T16:36:06;11.13;;;9.48;;
22713;SDS011;11524;50.846;4.326;2022-08-25T16:38:38;11.85;;;9.02;;
22713;SDS011;11524;50.846;4.326;2022-08-25T16:41:06;12.48;;;9.02;;
22713;SDS011;11524;50.846;4.326;2022-08-25T16:43:35;13.80;;;9.75;;
22713;SDS011;11524;50.846;4.326;2022-08-25T16:46:04;12.68;;;9.15;;
22713;SDS011;11524;50.846;4.326;2022-08-25T16:48:32;16.00;;;9.05;;
22713;SDS011;11524;50.846;4.326;2022-08-25T16:51:09;10.65;;;9.02;;
22713;SDS011;11524;50.846;4.326;2022-08-25T16:53:45;11.77;;;8.95;;
22713;SDS011;11524;50.846;4.326;2022-08-25T16:56:31;10.13;;;8.45;;
22713;SDS011;11524;50.846;4.326;2022-08-25T16:58:59;10.40;;;8.50;;
22713;SDS011;11524;50.846;4.326;2022-08-25T17:01:29;10.77;;;8.30;;
22713;SDS011;11524;50.846;4.326;2022-08-25T17:03:56;10.95;;;8.43;;
22713;SDS011;11524;50.846;4.326;2022-08-25T17:06:22;13.18;;;8.65;;
22713;SDS011;11524;50.846;4.326;2022-08-25T17:08:50;12.60;;;8.48;;
22713;SDS011;11524;50.846;4.326;2022-08-25T17:11:18;10.95;;;8.50;;
22713;SDS011;11524;50.846;4.326;2022-08-25T17:13:48;13.27;;;8.45;;
22713;SDS011;11524;50.846;4.326;2022-08-25T17:16:18;10.38;;;8.32;;
22713;SDS011;11524;50.846;4.326;2022-08-25T17:18:45;9.32;;;7.55;;
22713;SDS011;11524;50.846;4.326;2022-08-25T17:21:13;9.90;;;8.90;;
22713;SDS011;11524;50.846;4.326;2022-08-25T17:23:47;8.82;;;7.68;;
22713;SDS011;11524;50.846;4.326;2022-08-25T17:26:14;11.88;;;7.88;;
22713;SDS011;11524;50.846;4.326;2022-08-25T17:28:41;11.13;;;7.50;;
22713;SDS011;11524;50.846;4.326;2022-08-25T17:31:08;8.60;;;7.70;;
22713;SDS011;11524;50.846;4.326;2022-08-25T17:33:35;8.70;;;7.40;;
22713;SDS011;11524;50.846;4.326;2022-08-25T17:36:01;9.25;;;7.47;;
22713;SDS011;11524;50.846;4.326;2022-08-25T17:38:31;11.68;;;7.63;;
22713;SDS011;11524;50.846;4.326;2022-08-25T17:41:03;9.70;;;8.23;;
22713;SDS011;11524;50.846;4.326;2022-08-25T17:43:32;11.80;;;7.97;;
22713;SDS011;11524;50.846;4.326;2022-08-25T17:46:05;10.02;;;7.53;;
22713;SDS011;11524;50.846;4.326;2022-08-25T17:48:32;8.65;;;6.70;;
22713;SDS011;11524;50.846;4.326;2022-08-25T17:50:59;12.18;;;8.50;;
22713;SDS011;11524;50.846;4.326;2022-08-25T17:53:25;13.88;;;9.32;;
22713;SDS011;11524;50.846;4.326;2022-08-25T17:55:55;13.27;;;9.68;;
22713;SDS011;11524;50.846;4.326;2022-08-25T17:58:25;18.35;;;10.68;;
22713;SDS011;11524;50.846;4.326;2022-08-25T18:00:52;14.85;;;10.75;;
22713;SDS011;11524;50.846;4.326;2022-08-25T18:03:18;13.90;;;9.77;;
22713;SDS011;11524;50.846;4.326;2022-08-25T18:05:44;14.75;;;10.23;;
22713;SDS011;11524;50.846;4.326;2022-08-25T18:08:10;16.25;;;11.18;;
22713;SDS011;11524;50.846;4.326;2022-08-25T18:10:38;18.50;;;11.27;;
22713;SDS011;11524;50.846;4.326;2022-08-25T18:13:04;16.67;;;10.68;;
22713;SDS011;11524;50.846;4.326;2022-08-25T18:15:31;15.38;;;10.80;;
22713;SDS011;11524;50.846;4.326;2022-08-25T18:17:57;23.90;;;15.45;;
22713;SDS011;11524;50.846;4.326;2022-08-25T18:20:24;22.20;;;15.57;;
22713;SDS011;11524;50.846;4.326;2022-08-25T18:22:50;17.23;;;15.25;;
22713;SDS011;11524;50.846;4.326;2022-08-25T18:25:18;21.88;;;14.57;;
22713;SDS011;11524;50.846;4.326;2022-08-25T18:27:44;21.10;;;14.52;;
22713;SDS011;11524;50.846;4.326;2022-08-25T18:30:10;17.88;;;12.25;;
22713;SDS011;11524;50.846;4.326;2022-08-25T18:32:36;24.13;;;14.70;;
22713;SDS011;11524;50.846;4.326;2022-08-25T18:35:04;22.25;;;14.50;;
22713;SDS011;11524;50.846;4.326;2022-08-25T18:37:30;19.27;;;13.40;;
22713;SDS011;11524;50.846;4.326;2022-08-25T18:40:15;28.13;;;14.25;;
22713;SDS011;11524;50.846;4.326;2022-08-25T18:42:56;20.67;;;12.43;;
22713;SDS011;11524;50.846;4.326;2022-08-25T18:45:43;20.95;;;13.93;;
22713;SDS011;11524;50.846;4.326;2022-08-25T18:48:14;24.55;;;13.48;;
22713;SDS011;11524;50.846;4.326;2022-08-25T18:50:41;18.80;;;12.15;;
22713;SDS011;11524;50.846;4.326;2022-08-25T18:53:08;23.65;;;12.57;;
22713;SDS011;11524;50.846;4.326;2022-08-25T18:55:39;25.33;;;11.07;;
22713;SDS011;11524;50.846;4.326;2022-08-25T18:58:07;19.63;;;11.10;;
22713;SDS011;11524;50.846;4.326;2022-08-25T19:00:34;18.63;;;10.18;;
22713;SDS011;11524;50.846;4.326;2022-08-25T19:03:07;16.98;;;9.77;;
22713;SDS011;11524;50.846;4.326;2022-08-25T19:05:55;20.75;;;8.50;;
22713;SDS011;11524;50.846;4.326;2022-08-25T19:08:50;19.48;;;7.97;;
22713;SDS011;11524;50.846;4.326;2022-08-25T19:11:16;16.23;;;6.93;;
22713;SDS011;11524;50.846;4.326;2022-08-25T19:13:42;15.38;;;6.93;;